createdAt,value
2019-02-28T00:01:21.045Z,101246.91
2019-02-28T00:03:50.567Z,101247.63
2019-02-28T00:06:19.858Z,101242.28
2019-02-28T00:08:51.025Z,101242.28
2019-02-28T00:11:20.190Z,101237.98
2019-02-28T00:13:52.338Z,101242.96
2019-02-28T00:16:20.499Z,101242.96
2019-02-28T00:18:50.603Z,101240.70
2019-02-28T00:21:20.558Z,101240.70
2019-02-28T00:23:49.857Z,101237.39
2019-02-28T00:26:19.282Z,101239.73
2019-02-28T00:28:48.602Z,101239.52
2019-02-28T00:31:17.898Z,101239.44
2019-02-28T00:33:47.214Z,101239.97
2019-02-28T00:36:19.163Z,101232.74
2019-02-28T00:38:47.842Z,101225.80
2019-02-28T00:41:17.157Z,101225.40
2019-02-28T00:43:46.635Z,101227.09
2019-02-28T00:46:15.934Z,101219.96
2019-02-28T00:48:45.241Z,101222.84
2019-02-28T00:51:14.562Z,101215.08
2019-02-28T00:53:43.856Z,101210.39
2019-02-28T00:56:13.360Z,101207.84
2019-02-28T00:58:42.766Z,101205.20
2019-02-28T01:01:12.627Z,101202.30
2019-02-28T01:03:42.099Z,101204.64
2019-02-28T01:06:11.399Z,101197.14
2019-02-28T01:08:40.752Z,101204.34
2019-02-28T01:11:10.459Z,101204.34
2019-02-28T01:13:41.077Z,101197.59
2019-02-28T01:16:10.388Z,101194.14
2019-02-28T01:18:40.091Z,101193.71
2019-02-28T01:21:09.397Z,101188.44
2019-02-28T01:23:39.048Z,101175.84
2019-02-28T01:26:08.431Z,101181.47
2019-02-28T01:28:37.840Z,101180.73
2019-02-28T01:31:07.271Z,101179.56
2019-02-28T01:33:36.558Z,101177.13
2019-02-28T01:36:05.923Z,101171.11
2019-02-28T01:38:35.220Z,101165.92
2019-02-28T01:41:04.605Z,101166.30
2019-02-28T01:43:33.881Z,101163.09
2019-02-28T01:46:03.373Z,101158.98
2019-02-28T01:48:32.653Z,101154.05
2019-02-28T01:51:02.076Z,101151.81
2019-02-28T01:53:31.383Z,101155.54
2019-02-28T01:56:02.407Z,101160.70
2019-02-28T01:58:33.569Z,101155.63
2019-02-28T02:01:03.072Z,101152.83
2019-02-28T02:03:32.357Z,101153.49
2019-02-28T02:06:01.667Z,101157.59
2019-02-28T02:08:31.039Z,101157.52
2019-02-28T02:11:00.322Z,101160.48
2019-02-28T02:13:29.628Z,101150.33
2019-02-28T02:15:58.901Z,101143.61
2019-02-28T02:18:28.206Z,101142.77
2019-02-28T02:21:00.127Z,101136.91
2019-02-28T02:23:28.610Z,101129.34
2019-02-28T02:25:57.914Z,101128.59
2019-02-28T02:28:27.888Z,101121.95
2019-02-28T02:30:57.379Z,101124.38
2019-02-28T02:33:26.714Z,101119.67
2019-02-28T02:35:56.029Z,101115.05
2019-02-28T02:38:25.343Z,101111.34
2019-02-28T02:40:59.197Z,101104.19
2019-02-28T02:43:25.639Z,101104.41
2019-02-28T02:45:54.953Z,101097.80
2019-02-28T02:48:24.232Z,101097.87
2019-02-28T02:50:53.519Z,101093.70
2019-02-28T02:53:22.835Z,101092.73
2019-02-28T02:55:52.113Z,101085.77
2019-02-28T02:58:26.718Z,101081.52
2019-02-28T03:00:52.407Z,101079.78
2019-02-28T03:03:21.714Z,101074.50
2019-02-28T03:05:51.030Z,101081.77
2019-02-28T03:08:20.319Z,101079.11
2019-02-28T03:10:51.902Z,101073.59
2019-02-28T03:13:21.004Z,101069.07
2019-02-28T03:15:50.463Z,101064.17
2019-02-28T03:18:20.837Z,101064.47
2019-02-28T03:20:50.827Z,101069.50
2019-02-28T03:23:20.136Z,101069.55
2019-02-28T03:25:49.677Z,101064.52
2019-02-28T03:28:19.084Z,101065.03
2019-02-28T03:30:48.489Z,101067.33
2019-02-28T03:33:27.433Z,101070.38
2019-02-28T03:35:48.927Z,101070.47
2019-02-28T03:38:18.336Z,101069.53
2019-02-28T03:40:47.650Z,101070.55
2019-02-28T03:43:17.015Z,101063.91
2019-02-28T03:45:46.478Z,101069.77
2019-02-28T03:48:15.794Z,101073.63
2019-02-28T03:50:45.137Z,101074.93
2019-02-28T03:53:19.245Z,101064.08
2019-02-28T03:55:45.630Z,101067.67
2019-02-28T03:58:15.055Z,101063.97
2019-02-28T04:00:44.550Z,101069.95
2019-02-28T04:03:13.838Z,101073.77
2019-02-28T04:05:43.427Z,101085.57
2019-02-28T04:08:12.746Z,101084.82
2019-02-28T04:10:42.154Z,101079.69
2019-02-28T04:13:11.515Z,101080.44
2019-02-28T04:15:49.771Z,101075.30
2019-02-28T04:18:11.922Z,101076.88
2019-02-28T04:20:41.234Z,101081.81
2019-02-28T04:23:10.578Z,101077.64
2019-02-28T04:25:39.889Z,101078.55
2019-02-28T04:28:09.185Z,101070.06
2019-02-28T04:30:42.652Z,101072.41
2019-02-28T04:33:09.693Z,101067.47
2019-02-28T04:35:38.977Z,101060.37
2019-02-28T04:38:08.287Z,101050.28
2019-02-28T04:40:37.585Z,101049.27
2019-02-28T04:43:07.251Z,101054.88
2019-02-28T04:45:37.885Z,101050.73
2019-02-28T04:48:07.197Z,101060.52
2019-02-28T04:50:36.493Z,101060.06
2019-02-28T04:53:05.801Z,101055.38
2019-02-28T04:55:37.338Z,101051.00
2019-02-28T04:58:06.107Z,101054.73
2019-02-28T05:00:37.836Z,101054.35
2019-02-28T05:03:06.482Z,101057.63
2019-02-28T05:05:35.796Z,101052.73
2019-02-28T05:08:05.976Z,101054.25
2019-02-28T05:10:35.532Z,101053.72
2019-02-28T05:13:04.829Z,101051.33
2019-02-28T05:15:37.533Z,101052.09
2019-02-28T05:18:05.136Z,101062.75
2019-02-28T05:20:34.564Z,101057.70
2019-02-28T05:23:04.084Z,101062.05
2019-02-28T05:25:33.405Z,101057.13
2019-02-28T05:28:02.691Z,101061.88
2019-02-28T05:30:32.187Z,101060.87
2019-02-28T05:33:01.897Z,101053.59
2019-02-28T05:35:31.277Z,101053.89
2019-02-28T05:38:00.616Z,101052.34
2019-02-28T05:40:29.938Z,101053.89
2019-02-28T05:42:59.314Z,101059.94
2019-02-28T05:45:28.781Z,101054.58
2019-02-28T05:47:58.109Z,101049.61
2019-02-28T05:50:27.426Z,101052.91
2019-02-28T05:52:56.716Z,101052.16
2019-02-28T05:55:26.039Z,101046.44
2019-02-28T05:57:55.372Z,101054.75
2019-02-28T06:00:25.907Z,101048.20
2019-02-28T06:02:58.092Z,101052.39
2019-02-28T06:05:26.214Z,101055.95
2019-02-28T06:07:55.543Z,101050.14
2019-02-28T06:10:24.949Z,101049.40
2019-02-28T06:12:54.421Z,101051.97
2019-02-28T06:15:23.751Z,101051.20
2019-02-28T06:17:55.017Z,101047.34
2019-02-28T06:20:24.062Z,101039.52
2019-02-28T06:22:53.396Z,101042.31
2019-02-28T06:25:24.923Z,101035.62
2019-02-28T06:27:53.781Z,101035.36
2019-02-28T06:30:23.082Z,101038.72
2019-02-28T06:32:57.871Z,101043.45
2019-02-28T06:35:23.404Z,101045.59
2019-02-28T06:37:52.702Z,101045.55
2019-02-28T06:40:22.016Z,101045.00
2019-02-28T06:42:51.310Z,101051.44
2019-02-28T06:45:21.104Z,101036.53
2019-02-28T06:47:50.434Z,101037.32
2019-02-28T06:50:19.823Z,101037.58
2019-02-28T06:52:49.129Z,101037.43
2019-02-28T06:55:26.010Z,101037.48
2019-02-28T06:57:58.907Z,101037.98
2019-02-28T07:00:27.178Z,101039.41
2019-02-28T07:02:56.570Z,101044.00
2019-02-28T07:05:26.385Z,101042.91
2019-02-28T07:07:55.739Z,101042.82
2019-02-28T07:10:25.140Z,101037.05
2019-02-28T07:12:54.646Z,101024.06
2019-02-28T07:15:24.966Z,101032.48
2019-02-28T07:17:54.421Z,101031.75
2019-02-28T07:20:23.788Z,101031.17
2019-02-28T07:22:55.524Z,101029.04
2019-02-28T07:25:24.247Z,101026.20
2019-02-28T07:27:53.658Z,101026.20
2019-02-28T07:30:23.661Z,101023.40
2019-02-28T07:32:53.105Z,101026.20
2019-02-28T07:35:22.655Z,101026.20
2019-02-28T07:37:54.387Z,101026.92
2019-02-28T07:40:23.077Z,101024.16
2019-02-28T07:42:52.477Z,101024.16
2019-02-28T07:45:21.874Z,101026.25
2019-02-28T07:47:52.701Z,101026.25
2019-02-28T07:50:22.411Z,101024.77
2019-02-28T07:52:53.206Z,101025.19
2019-02-28T07:55:22.926Z,101024.11
2019-02-28T07:57:56.171Z,101023.53
2019-02-28T08:00:24.402Z,101023.53
2019-02-28T08:02:54.248Z,101032.84
2019-02-28T08:05:30.074Z,101032.84
2019-02-28T08:07:57.007Z,101026.11
2019-02-28T08:10:29.203Z,101026.52
2019-02-28T08:12:58.798Z,101020.77
2019-02-28T08:15:30.111Z,101017.22
2019-02-28T08:17:59.770Z,101012.39
2019-02-28T08:20:30.659Z,101001.62
2019-02-28T08:23:00.242Z,100995.03
2019-02-28T08:25:29.598Z,100998.91
2019-02-28T08:28:00.884Z,100998.91
2019-02-28T08:30:32.695Z,100993.25
2019-02-28T08:33:02.211Z,100993.25
2019-02-28T08:35:34.821Z,100990.38
2019-02-28T08:38:03.163Z,100978.65
2019-02-28T08:40:32.548Z,100973.00
2019-02-28T08:43:02.475Z,100970.30
2019-02-28T08:45:33.471Z,100973.38
2019-02-28T08:48:03.125Z,100979.75
2019-02-28T08:50:32.973Z,100985.36
2019-02-28T08:53:04.526Z,100984.03
2019-02-28T08:55:34.626Z,100973.80
2019-02-28T08:58:06.473Z,100975.10
2019-02-28T09:00:37.518Z,100973.74
2019-02-28T09:03:06.483Z,100965.09
2019-02-28T09:05:35.900Z,100965.73
2019-02-28T09:08:05.620Z,100970.34
2019-02-28T09:10:35.056Z,100975.72
2019-02-28T09:13:07.742Z,100980.55
2019-02-28T09:15:35.428Z,100983.58
2019-02-28T09:18:07.207Z,100984.14
2019-02-28T09:20:36.341Z,100976.41
2019-02-28T09:23:06.385Z,100977.00
2019-02-28T09:25:35.848Z,100970.37
2019-02-28T09:28:06.657Z,100959.76
2019-02-28T09:30:51.057Z,100951.56
2019-02-28T09:33:23.256Z,100954.93
2019-02-28T09:35:51.793Z,100942.41
2019-02-28T09:38:21.177Z,100946.52
2019-02-28T09:40:50.811Z,100928.69
2019-02-28T09:43:23.952Z,100915.89
2019-02-28T09:45:53.023Z,100919.75
2019-02-28T09:48:22.529Z,100913.22
2019-02-28T09:50:57.979Z,100918.70
2019-02-28T09:53:24.042Z,100920.52
2019-02-28T09:55:53.342Z,100919.88
2019-02-28T09:58:22.949Z,100918.48
2019-02-28T10:00:52.397Z,100912.92
2019-02-28T10:03:21.989Z,100918.84
2019-02-28T10:05:51.292Z,100920.89
2019-02-28T10:08:21.826Z,100911.84
2019-02-28T10:10:52.471Z,100910.88
2019-02-28T10:13:22.645Z,100906.31
2019-02-28T10:15:52.135Z,100908.03
2019-02-28T10:18:21.463Z,100907.03
2019-02-28T10:20:50.767Z,100909.69
2019-02-28T10:23:21.492Z,100914.16
2019-02-28T10:25:51.422Z,100910.71
2019-02-28T10:28:20.730Z,100910.33
2019-02-28T10:30:50.830Z,100906.21
2019-02-28T10:33:20.181Z,100909.36
2019-02-28T10:35:50.536Z,100905.03
2019-02-28T10:38:20.099Z,100891.48
2019-02-28T10:40:52.468Z,100900.84
2019-02-28T10:43:20.630Z,100898.84
2019-02-28T10:45:50.223Z,100898.13
2019-02-28T10:48:19.642Z,100897.67
2019-02-28T10:50:49.379Z,100900.80
2019-02-28T10:53:18.851Z,100910.45
2019-02-28T10:55:48.669Z,100907.81
2019-02-28T10:58:23.915Z,100910.05
2019-02-28T11:01:07.676Z,100913.64
2019-02-28T11:03:43.606Z,100918.14
2019-02-28T11:06:17.627Z,100912.84
2019-02-28T11:08:50.945Z,100916.19
2019-02-28T11:11:29.938Z,100920.58
2019-02-28T11:14:09.816Z,100921.11
2019-02-28T11:16:49.334Z,100920.40
2019-02-28T11:19:27.808Z,100920.17
2019-02-28T11:22:01.539Z,100919.44
2019-02-28T11:24:32.144Z,100910.06
2019-02-28T11:27:10.690Z,100899.84
2019-02-28T11:29:50.435Z,100879.52
2019-02-28T11:32:29.985Z,100888.86
2019-02-28T11:35:07.962Z,100878.39
2019-02-28T11:37:42.325Z,100870.63
2019-02-28T11:40:20.009Z,100870.54
2019-02-28T11:42:59.490Z,100872.05
2019-02-28T11:45:34.563Z,100869.83
2019-02-28T11:48:18.750Z,100870.70
2019-02-28T11:50:56.253Z,100870.33
2019-02-28T11:53:39.337Z,100857.06
2019-02-28T11:56:09.634Z,100858.95
2019-02-28T11:58:39.650Z,100866.02
2019-02-28T12:01:18.178Z,100851.20
2019-02-28T12:03:47.641Z,100855.34
2019-02-28T12:06:17.743Z,100851.54
2019-02-28T12:08:47.137Z,100852.33
2019-02-28T12:11:16.845Z,100856.91
2019-02-28T12:13:46.258Z,100850.77
2019-02-28T12:16:16.248Z,100852.52
2019-02-28T12:18:47.952Z,100852.75
2019-02-28T12:21:17.734Z,100852.44
2019-02-28T12:23:48.053Z,100852.59
2019-02-28T12:26:21.540Z,100866.30
2019-02-28T12:28:51.135Z,100861.54
2019-02-28T12:31:28.958Z,100866.58
2019-02-28T12:34:09.318Z,100857.36
2019-02-28T12:36:46.377Z,100857.16
2019-02-28T12:39:25.833Z,100853.77
2019-02-28T12:41:56.529Z,100858.48
2019-02-28T12:44:27.803Z,100844.00
2019-02-28T12:46:57.200Z,100840.53
2019-02-28T12:49:27.668Z,100843.22
2019-02-28T12:51:57.179Z,100836.87
2019-02-28T12:54:26.526Z,100837.31
2019-02-28T12:56:56.157Z,100837.69
2019-02-28T12:59:25.475Z,100839.98
2019-02-28T13:01:54.859Z,100843.87
2019-02-28T13:04:24.228Z,100846.75
2019-02-28T13:06:55.579Z,100841.57
2019-02-28T13:09:44.478Z,100848.27
2019-02-28T13:12:13.990Z,100843.46
2019-02-28T13:14:43.698Z,100837.28
2019-02-28T13:17:13.014Z,100840.19
2019-02-28T13:19:42.319Z,100841.30
2019-02-28T13:22:11.727Z,100845.91
2019-02-28T13:24:42.503Z,100856.71
2019-02-28T13:27:12.445Z,100851.65
2019-02-28T13:29:41.739Z,100852.64
2019-02-28T13:32:11.260Z,100850.30
2019-02-28T13:34:40.560Z,100872.74
2019-02-28T13:37:09.879Z,100866.08
2019-02-28T13:39:39.164Z,100889.41
2019-02-28T13:42:08.663Z,100898.80
2019-02-28T13:44:38.139Z,100908.21
2019-02-28T13:47:09.819Z,100902.67
2019-02-28T13:49:38.623Z,100895.77
2019-02-28T13:52:08.177Z,100910.42
2019-02-28T13:54:38.137Z,100915.25
2019-02-28T13:57:10.008Z,100922.61
2019-02-28T13:59:39.895Z,100919.77
2019-02-28T14:02:10.282Z,100931.87
2019-02-28T14:04:39.760Z,100943.87
2019-02-28T14:07:09.056Z,100941.80
2019-02-28T14:09:38.650Z,100944.94
2019-02-28T14:12:08.236Z,100950.45
2019-02-28T14:14:38.994Z,100942.50
2019-02-28T14:17:08.881Z,100937.54
2019-02-28T14:19:38.198Z,100942.71
2019-02-28T14:22:08.663Z,100954.24
2019-02-28T14:24:39.240Z,100961.92
2019-02-28T14:27:08.962Z,100962.32
2019-02-28T14:29:38.464Z,100978.75
2019-02-28T14:32:08.247Z,100986.05
2019-02-28T14:34:37.821Z,100982.54
2019-02-28T14:37:07.112Z,100979.96
2019-02-28T14:52:32.212Z,100973.35
2019-02-28T14:55:01.661Z,100973.24
2019-02-28T14:57:30.974Z,100973.78
2019-02-28T15:00:06.211Z,100969.05
2019-02-28T15:02:31.784Z,100971.17
2019-02-28T15:05:01.316Z,100963.73
2019-02-28T15:07:30.634Z,100973.32
2019-02-28T15:10:01.679Z,100969.40
2019-02-28T15:12:31.343Z,100974.03
2019-02-28T15:15:00.654Z,100976.63
2019-02-28T15:17:30.025Z,100977.31
2019-02-28T15:19:59.360Z,100972.53
2019-02-28T15:22:28.742Z,100963.66
2019-02-28T15:24:58.031Z,100967.14
2019-02-28T15:27:27.362Z,100964.86
2019-02-28T15:29:58.903Z,100963.45
2019-02-28T15:32:27.672Z,100959.47
2019-02-28T15:34:56.996Z,100952.81
2019-02-28T15:37:26.326Z,100954.11
2019-02-28T15:39:55.713Z,100957.32
2019-02-28T15:42:25.007Z,100955.34
2019-02-28T15:44:54.346Z,100950.73
2019-02-28T15:47:24.086Z,100951.34
2019-02-28T15:49:53.515Z,100953.03
2019-02-28T15:52:22.847Z,100949.23
2019-02-28T15:54:52.391Z,100948.80
2019-02-28T15:57:21.712Z,100942.73
2019-02-28T15:59:51.370Z,100935.25
2019-02-28T16:02:21.544Z,100935.90
2019-02-28T16:04:50.952Z,100933.34
2019-02-28T16:07:21.777Z,100933.13
2019-02-28T16:09:54.105Z,100925.17
2019-02-28T16:12:22.428Z,100929.51
2019-02-28T16:14:51.821Z,100929.88
2019-02-28T16:17:21.288Z,100937.44
2019-02-28T16:19:53.220Z,100938.47
2019-02-28T16:22:21.683Z,100935.08
2019-02-28T16:24:51.098Z,100928.72
2019-02-28T16:27:20.634Z,100924.55
2019-02-28T16:29:52.361Z,100921.17
2019-02-28T16:32:21.712Z,100931.44
2019-02-28T16:34:51.217Z,100931.31
2019-02-28T16:37:20.681Z,100933.77
2019-02-28T16:39:50.369Z,100929.56
2019-02-28T16:42:19.650Z,100916.88
2019-02-28T16:44:48.961Z,100918.94
2019-02-28T16:47:18.246Z,100917.73
2019-02-28T16:49:48.034Z,100913.67
2019-02-28T16:52:17.503Z,100917.73
2019-02-28T16:54:47.102Z,100909.98
2019-02-28T16:57:16.426Z,100916.55
2019-02-28T16:59:45.803Z,100917.52
2019-02-28T17:02:15.526Z,100918.59
2019-02-28T17:04:44.836Z,100911.39
2019-02-28T17:07:14.232Z,100908.19
2019-02-28T17:09:43.667Z,100899.01
2019-02-28T17:12:17.578Z,100899.61
2019-02-28T17:14:48.286Z,100894.89
2019-02-28T17:17:19.752Z,100897.66
2019-02-28T17:19:49.285Z,100894.59
2019-02-28T17:22:18.649Z,100888.84
2019-02-28T17:24:48.002Z,100889.80
2019-02-28T17:27:21.908Z,100890.19
2019-02-28T17:29:53.623Z,100887.52
2019-02-28T17:32:23.172Z,100892.84
2019-02-28T17:34:52.695Z,100900.34
2019-02-28T17:37:26.038Z,100900.88
2019-02-28T17:39:53.011Z,100896.05
2019-02-28T17:42:22.710Z,100892.70
2019-02-28T17:45:02.132Z,100892.73
2019-02-28T17:47:57.054Z,100886.75
2019-02-28T17:50:39.360Z,100889.75
2019-02-28T17:53:36.221Z,100884.72
2019-02-28T17:56:37.537Z,100891.58
2019-02-28T17:59:44.811Z,100887.53
2019-02-28T18:02:31.982Z,100882.50
2019-02-28T18:05:30.031Z,100887.59
2019-02-28T18:08:02.610Z,100890.63
2019-02-28T18:10:59.171Z,100897.48
2019-02-28T18:13:30.424Z,100893.80
2019-02-28T18:16:09.099Z,100896.17
2019-02-28T18:18:44.470Z,100893.78
2019-02-28T18:21:17.327Z,100897.94
2019-02-28T18:23:56.011Z,100894.72
2019-02-28T18:26:44.827Z,100887.81
2019-02-28T18:29:19.916Z,100889.95
2019-02-28T18:31:49.386Z,100886.84
2019-02-28T18:34:20.623Z,100874.67
2019-02-28T18:36:50.016Z,100869.45
2019-02-28T18:39:19.539Z,100868.11
2019-02-28T18:41:50.819Z,100867.05
2019-02-28T18:44:20.248Z,100861.39
2019-02-28T18:46:49.576Z,100860.95
2019-02-28T18:49:18.919Z,100864.58
2019-02-28T18:51:48.299Z,100864.66
2019-02-28T18:54:17.688Z,100866.00
2019-02-28T18:56:47.094Z,100862.57
2019-02-28T18:59:16.792Z,100857.42
2019-02-28T19:01:46.223Z,100856.64
2019-02-28T19:04:15.580Z,100850.06
2019-02-28T19:06:44.903Z,100856.97
2019-02-28T19:09:24.733Z,100852.41
2019-02-28T19:11:54.456Z,100853.06
2019-02-28T19:14:23.898Z,100849.42
2019-02-28T19:16:53.210Z,100847.54
2019-02-28T19:19:22.648Z,100845.24
2019-02-28T19:21:51.949Z,100849.00
2019-02-28T19:24:21.240Z,100840.27
2019-02-28T19:26:50.543Z,100838.24
2019-02-28T19:29:20.111Z,100836.80
2019-02-28T19:31:49.575Z,100836.71
2019-02-28T19:34:19.497Z,100834.22
2019-02-28T19:36:48.855Z,100827.29
2019-02-28T19:39:18.244Z,100835.81
2019-02-28T19:41:47.785Z,100835.89
2019-02-28T19:44:17.421Z,100830.20
2019-02-28T19:46:46.736Z,100830.72
2019-02-28T19:49:16.432Z,100829.95
2019-02-28T19:51:45.756Z,100829.66
2019-02-28T19:54:15.335Z,100824.23
2019-02-28T19:56:44.625Z,100818.42
2019-02-28T19:59:14.765Z,100816.45
2019-02-28T20:01:45.404Z,100822.48
2019-02-28T20:04:15.634Z,100815.19
2019-02-28T20:06:45.307Z,100810.09
2019-02-28T20:09:14.679Z,100806.37
2019-02-28T20:11:44.142Z,100796.77
2019-02-28T20:14:13.810Z,100786.88
2019-02-28T20:16:43.199Z,100789.87
2019-02-28T20:19:13.037Z,100789.30
2019-02-28T20:21:42.332Z,100782.81
2019-02-28T20:24:12.509Z,100783.45
2019-02-28T20:26:41.885Z,100782.75
2019-02-28T20:29:11.303Z,100783.01
2019-02-28T20:31:40.613Z,100780.17
2019-02-28T20:34:10.353Z,100787.91
2019-02-28T20:36:40.158Z,100786.95
2019-02-28T20:39:12.339Z,100785.33
2019-02-28T20:41:41.650Z,100779.13
2019-02-28T20:44:11.192Z,100774.63
2019-02-28T20:46:40.609Z,100771.45
2019-02-28T20:49:09.928Z,100775.44
2019-02-28T20:51:39.232Z,100772.56
2019-02-28T20:54:08.569Z,100769.32
2019-02-28T20:56:37.857Z,100769.41
2019-02-28T20:59:07.201Z,100769.36
2019-02-28T21:01:36.548Z,100771.55
2019-02-28T21:04:06.185Z,100772.38
2019-02-28T21:06:35.611Z,100769.56
2019-02-28T21:09:06.839Z,100767.34
2019-02-28T21:11:36.342Z,100770.89
2019-02-28T21:14:05.807Z,100764.00
2019-02-28T21:16:35.366Z,100762.70
2019-02-28T21:19:04.930Z,100759.22
2019-02-28T21:21:34.251Z,100760.47
2019-02-28T21:24:03.805Z,100753.20
2019-02-28T21:26:33.269Z,100752.30
2019-02-28T21:29:02.756Z,100750.41
2019-02-28T21:31:32.068Z,100747.07
2019-02-28T21:34:01.382Z,100754.73
2019-02-28T21:36:30.769Z,100754.05
2019-02-28T21:39:00.100Z,100759.19
2019-02-28T21:41:29.419Z,100757.05
2019-02-28T21:43:58.745Z,100755.45
2019-02-28T21:46:28.088Z,100755.80
2019-02-28T21:48:57.388Z,100758.80
2019-02-28T21:51:26.773Z,100750.88
2019-02-28T21:53:56.070Z,100741.09
2019-02-28T21:56:25.408Z,100740.79
2019-02-28T21:58:54.718Z,100740.53
2019-02-28T22:01:24.147Z,100737.54
2019-02-28T22:03:53.449Z,100731.80
2019-02-28T22:06:23.254Z,100730.89
2019-02-28T22:08:52.936Z,100725.57
2019-02-28T22:11:22.436Z,100724.09
2019-02-28T22:13:51.742Z,100719.70
2019-02-28T22:16:21.267Z,100724.86
2019-02-28T22:18:50.652Z,100717.91
2019-02-28T22:21:19.929Z,100718.51
2019-02-28T22:23:49.276Z,100712.55
2019-02-28T22:26:18.661Z,100713.60
2019-02-28T22:28:47.977Z,100709.97
2019-02-28T22:31:30.713Z,100717.25
2019-02-28T22:34:01.714Z,100709.54
2019-02-28T22:36:32.653Z,100710.47
2019-02-28T22:39:02.002Z,100711.03
2019-02-28T22:41:31.284Z,100708.94
2019-02-28T22:44:00.605Z,100707.47
2019-02-28T22:46:29.893Z,100701.39
2019-02-28T22:48:59.205Z,100691.77
2019-02-28T22:51:28.686Z,100697.13
2019-02-28T22:53:58.007Z,100702.55
2019-02-28T22:56:27.414Z,100697.98
2019-02-28T22:58:56.743Z,100693.35
2019-02-28T23:01:27.024Z,100688.14
2019-02-28T23:03:56.341Z,100688.36
2019-02-28T23:06:25.896Z,100686.05
2019-02-28T23:08:55.281Z,100667.20
2019-02-28T23:11:25.105Z,100671.11
2019-02-28T23:13:54.421Z,100670.05
2019-02-28T23:16:23.835Z,100665.44
2019-02-28T23:18:53.302Z,100666.83
2019-02-28T23:21:22.647Z,100664.89
2019-02-28T23:23:51.923Z,100664.06
2019-02-28T23:26:24.533Z,100659.59
2019-02-28T23:28:59.676Z,100660.52
2019-02-28T23:31:53.176Z,100656.94
2019-02-28T23:34:31.809Z,100656.19
2019-02-28T23:37:01.172Z,100650.60
2019-02-28T23:39:30.451Z,100646.27
2019-02-28T23:41:59.769Z,100649.63
2019-02-28T23:44:29.639Z,100648.86
2019-02-28T23:46:59.044Z,100640.48
2019-02-28T23:49:28.752Z,100639.53
2019-02-28T23:51:58.051Z,100635.76
2019-02-28T23:54:27.858Z,100628.93
2019-02-28T23:56:57.188Z,100627.31
2019-02-28T23:59:26.540Z,100626.41
